createdAt,value
2017-05-26T00:00:52.113Z,21.92
2017-05-26T00:02:02.379Z,21.92
2017-05-26T00:03:12.334Z,21.91
2017-05-26T00:04:22.281Z,21.98
2017-05-26T00:05:31.915Z,21.92
2017-05-26T00:06:42.237Z,21.96
2017-05-26T00:07:51.567Z,21.92
2017-05-26T00:09:01.539Z,21.92
2017-05-26T00:10:11.175Z,21.98
2017-05-26T00:11:21.447Z,21.92
2017-05-26T00:12:31.716Z,21.98
2017-05-26T00:13:41.351Z,21.92
2017-05-26T00:14:51.630Z,21.84
2017-05-26T00:16:01.588Z,21.92
2017-05-26T00:17:11.892Z,21.96
2017-05-26T00:18:21.534Z,21.96
2017-05-26T00:19:31.805Z,21.99
2017-05-26T00:20:42.070Z,21.92
2017-05-26T00:21:52.337Z,21.98
2017-05-26T00:23:01.979Z,21.98
2017-05-26T00:24:12.246Z,21.91
2017-05-26T00:25:22.521Z,21.96
2017-05-26T00:26:32.788Z,21.96
2017-05-26T00:27:42.427Z,21.94
2017-05-26T00:28:52.377Z,21.92
2017-05-26T00:30:02.644Z,21.94
2017-05-26T00:31:12.913Z,21.9
2017-05-26T00:32:22.888Z,21.9
2017-05-26T00:33:32.844Z,21.96
2017-05-26T00:34:43.113Z,21.92
2017-05-26T00:35:53.386Z,21.88
2017-05-26T00:37:03.337Z,21.92
2017-05-26T00:38:13.604Z,21.94
2017-05-26T00:39:23.561Z,21.94
2017-05-26T00:40:33.509Z,21.88
2017-05-26T00:41:43.484Z,21.88
2017-05-26T00:42:53.433Z,21.9
2017-05-26T00:44:03.706Z,21.84
2017-05-26T00:45:13.339Z,21.86
2017-05-26T00:46:23.613Z,21.94
2017-05-26T00:47:33.250Z,21.86
2017-05-26T00:48:43.205Z,21.82
2017-05-26T00:49:53.488Z,21.88
2017-05-26T00:51:03.760Z,21.9
2017-05-26T00:52:13.400Z,21.88
2017-05-26T00:53:23.418Z,21.92
2017-05-26T00:54:33.367Z,21.96
2017-05-26T00:55:43.626Z,21.82
2017-05-26T00:56:53.893Z,21.82
2017-05-26T00:58:04.162Z,21.88
2017-05-26T00:59:14.118Z,21.88
2017-05-26T01:00:24.069Z,21.91
2017-05-26T01:01:34.340Z,21.9
2017-05-26T01:02:44.317Z,21.82
2017-05-26T01:03:54.591Z,21.88
2017-05-26T01:05:04.858Z,21.88
2017-05-26T01:06:14.496Z,21.86
2017-05-26T01:07:24.456Z,21.91
2017-05-26T01:08:34.408Z,21.91
2017-05-26T01:09:44.372Z,21.8
2017-05-26T01:10:54.643Z,21.86
2017-05-26T01:12:04.278Z,21.86
2017-05-26T01:13:14.231Z,21.88
2017-05-26T01:14:24.183Z,21.86
2017-05-26T01:15:33.821Z,21.86
2017-05-26T01:16:43.148Z,21.84
2017-05-26T01:17:53.102Z,21.9
2017-05-26T01:19:03.073Z,21.88
2017-05-26T01:20:13.024Z,21.91
2017-05-26T01:21:23.295Z,21.88
2017-05-26T01:22:33.566Z,21.84
2017-05-26T01:23:43.519Z,21.92
2017-05-26T01:24:53.783Z,21.96
2017-05-26T01:26:04.052Z,21.82
2017-05-26T01:27:14.000Z,21.9
2017-05-26T01:28:24.007Z,21.9
2017-05-26T01:29:34.273Z,21.82
2017-05-26T01:30:43.914Z,21.91
2017-05-26T01:31:53.868Z,21.9
2017-05-26T01:33:03.554Z,21.91
2017-05-26T01:34:13.196Z,21.86
2017-05-26T01:35:23.458Z,21.84
2017-05-26T01:36:33.724Z,21.84
2017-05-26T01:37:44.012Z,21.84
2017-05-26T01:38:53.338Z,21.82
2017-05-26T01:40:02.661Z,21.69
2017-05-26T01:41:12.302Z,21.8
2017-05-26T01:42:21.621Z,21.8
2017-05-26T01:43:31.572Z,21.79
2017-05-26T01:44:41.843Z,21.84
2017-05-26T01:45:51.483Z,21.82
2017-05-26T01:47:01.128Z,21.79
2017-05-26T01:48:10.465Z,21.79
2017-05-26T01:49:20.419Z,21.82
2017-05-26T01:50:30.679Z,21.84
2017-05-26T01:51:40.637Z,21.84
2017-05-26T01:52:50.276Z,21.74
2017-05-26T01:54:00.546Z,21.71
2017-05-26T01:55:10.182Z,21.74
2017-05-26T01:56:20.137Z,21.79
2017-05-26T01:57:30.405Z,21.82
2017-05-26T01:58:40.674Z,21.77
2017-05-26T01:59:50.637Z,21.75
2017-05-26T02:01:00.593Z,21.79
2017-05-26T02:02:10.235Z,21.84
2017-05-26T02:03:19.874Z,21.82
2017-05-26T02:04:30.136Z,21.8
2017-05-26T02:05:40.396Z,21.72
2017-05-26T02:06:50.358Z,21.67
2017-05-26T02:08:00.631Z,21.71
2017-05-26T02:09:10.267Z,21.74
2017-05-26T02:10:20.531Z,21.77
2017-05-26T02:11:30.496Z,21.79
2017-05-26T02:12:40.449Z,21.77
2017-05-26T02:13:50.720Z,21.74
2017-05-26T02:15:00.673Z,21.8
2017-05-26T02:16:10.313Z,21.71
2017-05-26T02:17:20.278Z,21.69
2017-05-26T02:18:30.230Z,21.79
2017-05-26T02:19:40.509Z,21.75
2017-05-26T02:20:50.783Z,21.74
2017-05-26T02:22:00.764Z,21.72
2017-05-26T02:23:10.481Z,21.75
2017-05-26T02:24:20.752Z,21.8
2017-05-26T02:25:31.029Z,21.72
2017-05-26T02:26:40.654Z,21.75
2017-05-26T02:27:50.609Z,21.77
2017-05-26T02:29:00.889Z,21.74
2017-05-26T02:30:11.156Z,21.79
2017-05-26T02:31:21.107Z,21.77
2017-05-26T02:32:31.055Z,21.71
2017-05-26T02:33:41.323Z,21.79
2017-05-26T02:34:51.588Z,21.71
2017-05-26T02:36:01.856Z,21.72
2017-05-26T02:37:12.123Z,21.72
2017-05-26T02:38:21.763Z,21.72
2017-05-26T02:39:31.721Z,21.75
2017-05-26T02:40:41.982Z,21.72
2017-05-26T02:41:51.617Z,21.68
2017-05-26T02:43:01.884Z,21.71
2017-05-26T02:44:11.893Z,21.69
2017-05-26T02:45:21.841Z,21.72
2017-05-26T02:46:31.791Z,21.69
2017-05-26T02:47:41.433Z,21.71
2017-05-26T02:48:51.704Z,21.65
2017-05-26T02:50:01.660Z,21.72
2017-05-26T02:51:11.922Z,21.67
2017-05-26T02:52:21.881Z,21.71
2017-05-26T02:53:31.520Z,21.65
2017-05-26T02:54:41.470Z,21.69
2017-05-26T02:55:51.748Z,21.62
2017-05-26T02:57:01.698Z,21.65
2017-05-26T02:58:11.023Z,21.65
2017-05-26T02:59:21.292Z,21.67
2017-05-26T03:00:31.243Z,21.67
2017-05-26T03:01:40.876Z,21.69
2017-05-26T03:02:50.521Z,21.67
2017-05-26T03:04:00.473Z,21.67
2017-05-26T03:05:09.800Z,21.71
2017-05-26T03:06:19.438Z,21.72
2017-05-26T03:07:29.394Z,21.72
2017-05-26T03:08:39.658Z,21.65
2017-05-26T03:09:49.612Z,21.67
2017-05-26T03:10:59.878Z,21.69
2017-05-26T03:12:09.834Z,21.67
2017-05-26T03:13:19.784Z,21.68
2017-05-26T03:14:29.427Z,21.68
2017-05-26T03:15:39.694Z,21.65
2017-05-26T03:16:49.648Z,21.67
2017-05-26T03:17:59.721Z,21.69
2017-05-26T03:19:09.364Z,21.69
2017-05-26T03:20:19.004Z,21.69
2017-05-26T03:21:28.329Z,21.69
2017-05-26T03:22:38.281Z,21.69
2017-05-26T03:23:47.918Z,21.68
2017-05-26T03:24:58.196Z,21.61
2017-05-26T03:26:07.826Z,21.65
2017-05-26T03:27:17.465Z,21.67
2017-05-26T03:28:26.788Z,21.64
2017-05-26T03:29:37.067Z,21.65
2017-05-26T03:30:47.029Z,21.64
2017-05-26T03:31:56.990Z,21.68
2017-05-26T03:33:06.946Z,21.69
2017-05-26T03:34:16.593Z,21.67
2017-05-26T03:35:26.339Z,21.61
2017-05-26T03:36:36.297Z,21.56
2017-05-26T03:37:46.565Z,21.67
2017-05-26T03:38:56.838Z,21.62
2017-05-26T03:40:07.110Z,21.61
2017-05-26T03:41:17.380Z,21.59
2017-05-26T03:42:27.021Z,21.62
2017-05-26T03:43:36.976Z,21.67
2017-05-26T03:44:46.931Z,21.61
2017-05-26T03:45:57.208Z,21.62
2017-05-26T03:47:07.477Z,21.65
2017-05-26T03:48:17.430Z,21.65
2017-05-26T03:49:27.389Z,21.61
2017-05-26T03:50:37.380Z,21.61
2017-05-26T03:51:47.332Z,21.64
2017-05-26T03:52:57.396Z,21.61
2017-05-26T03:54:07.343Z,21.61
2017-05-26T03:55:17.611Z,21.61
2017-05-26T03:56:27.252Z,21.61
2017-05-26T03:57:37.213Z,21.67
2017-05-26T03:58:47.164Z,21.58
2017-05-26T03:59:57.113Z,21.64
2017-05-26T04:01:07.066Z,21.59
2017-05-26T04:02:17.015Z,21.61
2017-05-26T04:03:26.973Z,21.59
2017-05-26T04:04:37.243Z,21.64
2017-05-26T04:05:47.513Z,21.67
2017-05-26T04:06:57.778Z,21.67
2017-05-26T04:08:07.732Z,21.64
2017-05-26T04:09:17.380Z,21.54
2017-05-26T04:10:27.647Z,21.59
2017-05-26T04:11:37.908Z,21.62
2017-05-26T04:12:48.179Z,21.65
2017-05-26T04:13:58.154Z,21.58
2017-05-26T04:15:08.108Z,21.65
2017-05-26T04:16:18.059Z,21.65
2017-05-26T04:17:28.016Z,21.67
2017-05-26T04:18:37.969Z,21.67
2017-05-26T04:19:47.922Z,21.64
2017-05-26T04:20:58.198Z,21.67
2017-05-26T04:22:08.468Z,21.65
2017-05-26T04:23:18.735Z,21.62
2017-05-26T04:24:28.690Z,21.67
2017-05-26T04:25:38.643Z,21.58
2017-05-26T04:26:48.594Z,21.67
2017-05-26T04:27:58.856Z,21.64
2017-05-26T04:29:08.867Z,21.68
2017-05-26T04:30:19.134Z,21.5
2017-05-26T04:31:28.770Z,21.62
2017-05-26T04:32:38.409Z,21.64
2017-05-26T04:33:48.683Z,21.65
2017-05-26T04:34:58.642Z,21.67
2017-05-26T04:36:08.908Z,21.65
2017-05-26T04:37:19.183Z,21.68
2017-05-26T04:38:29.454Z,21.71
2017-05-26T04:39:39.407Z,21.68
2017-05-26T04:40:49.369Z,21.61
2017-05-26T04:41:59.324Z,21.67
2017-05-26T04:43:09.273Z,21.65
2017-05-26T04:44:19.238Z,21.67
2017-05-26T04:45:29.189Z,21.67
2017-05-26T04:46:39.144Z,21.61
2017-05-26T04:47:49.414Z,21.67
2017-05-26T04:48:59.058Z,21.62
2017-05-26T04:50:08.382Z,21.68
2017-05-26T04:51:18.356Z,21.68
2017-05-26T04:52:27.999Z,21.61
2017-05-26T04:53:38.328Z,21.56
2017-05-26T04:54:47.657Z,21.68
2017-05-26T04:55:57.925Z,21.67
2017-05-26T04:57:07.884Z,21.71
2017-05-26T04:58:17.837Z,21.59
2017-05-26T04:59:28.107Z,21.74
2017-05-26T05:00:38.374Z,21.82
2017-05-26T05:01:48.645Z,21.82
2017-05-26T05:02:58.912Z,21.9
2017-05-26T05:04:09.176Z,21.94
2017-05-26T05:05:19.129Z,21.91
2017-05-26T05:06:29.401Z,21.96
2017-05-26T05:07:39.669Z,21.86
2017-05-26T05:08:49.932Z,21.91
2017-05-26T05:09:59.899Z,21.86
2017-05-26T05:11:09.850Z,21.9
2017-05-26T05:12:19.799Z,21.91
2017-05-26T05:13:29.755Z,21.9
2017-05-26T05:14:40.019Z,21.98
2017-05-26T05:15:50.360Z,21.94
2017-05-26T05:17:00.637Z,21.94
2017-05-26T05:18:10.907Z,21.86
2017-05-26T05:19:20.551Z,21.86
2017-05-26T05:20:30.822Z,21.91
2017-05-26T05:21:40.780Z,21.91
2017-05-26T05:22:50.731Z,21.9
2017-05-26T05:24:01.009Z,21.9
2017-05-26T05:25:11.273Z,21.9
2017-05-26T05:26:21.596Z,21.88
2017-05-26T05:27:31.230Z,21.82
2017-05-26T05:28:41.502Z,21.9
2017-05-26T05:29:51.457Z,21.83
2017-05-26T05:31:01.729Z,21.99
2017-05-26T05:32:11.385Z,21.92
2017-05-26T05:33:21.023Z,21.92
2017-05-26T05:34:30.977Z,21.94
2017-05-26T05:35:40.621Z,21.91
2017-05-26T05:36:50.575Z,21.96
2017-05-26T05:38:00.524Z,21.91
2017-05-26T05:39:10.161Z,22.03
2017-05-26T05:40:20.430Z,22.02
2017-05-26T05:41:30.406Z,22.1
2017-05-26T05:42:40.351Z,21.94
2017-05-26T05:43:50.623Z,22.06
2017-05-26T05:45:00.902Z,21.99
2017-05-26T05:46:10.868Z,22.1
2017-05-26T05:47:21.144Z,22.07
2017-05-26T05:48:30.777Z,22.02
2017-05-26T05:49:40.747Z,21.99
2017-05-26T05:50:50.699Z,21.92
2017-05-26T05:52:00.981Z,21.99
2017-05-26T05:53:10.624Z,22.07
2017-05-26T05:54:20.892Z,22.02
2017-05-26T05:55:31.166Z,22.02
2017-05-26T05:56:41.117Z,22.02
2017-05-26T05:57:51.383Z,22.02
2017-05-26T05:59:01.663Z,22.02
2017-05-26T06:00:11.931Z,22.02
2017-05-26T06:01:21.571Z,22.06
2017-05-26T06:02:30.898Z,22
2017-05-26T06:03:40.533Z,22.02
2017-05-26T06:04:50.493Z,22
2017-05-26T06:06:00.763Z,22.03
2017-05-26T06:07:11.032Z,21.94
2017-05-26T06:08:20.986Z,22.05
2017-05-26T06:09:31.263Z,22.06
2017-05-26T06:10:41.525Z,22.02
2017-05-26T06:11:51.164Z,22
2017-05-26T06:13:01.440Z,21.94
2017-05-26T06:14:11.079Z,22.03
2017-05-26T06:15:21.035Z,22.03
2017-05-26T06:16:31.300Z,22
2017-05-26T06:17:41.252Z,22.02
2017-05-26T06:18:51.213Z,21.91
2017-05-26T06:20:00.543Z,22.03
2017-05-26T06:21:10.188Z,21.9
2017-05-26T06:22:19.832Z,21.92
2017-05-26T06:23:30.164Z,22
2017-05-26T06:24:40.432Z,21.94
2017-05-26T06:25:50.392Z,21.94
2017-05-26T06:27:00.031Z,21.94
2017-05-26T06:28:10.302Z,21.91
2017-05-26T06:29:19.941Z,22.02
2017-05-26T06:30:29.894Z,21.9
2017-05-26T06:31:39.850Z,21.91
2017-05-26T06:32:49.797Z,21.98
2017-05-26T06:34:00.075Z,21.92
2017-05-26T06:35:10.024Z,21.98
2017-05-26T06:36:20.292Z,21.98
2017-05-26T06:37:30.559Z,21.91
2017-05-26T06:38:40.827Z,21.94
2017-05-26T06:39:51.105Z,21.99
2017-05-26T06:41:01.060Z,21.9
2017-05-26T06:42:11.328Z,21.9
2017-05-26T06:43:20.982Z,21.99
2017-05-26T06:44:31.255Z,22
2017-05-26T06:45:41.524Z,22.05
2017-05-26T06:46:51.787Z,22.06
2017-05-26T06:48:02.057Z,22.02
2017-05-26T06:49:12.012Z,22.03
2017-05-26T06:50:21.970Z,22.05
2017-05-26T06:51:32.243Z,22.02
2017-05-26T06:52:42.198Z,22.03
2017-05-26T06:53:52.470Z,22.05
2017-05-26T06:55:02.423Z,22.07
2017-05-26T06:56:12.688Z,22.07
2017-05-26T06:57:22.961Z,22.1
2017-05-26T06:58:32.913Z,22.06
2017-05-26T06:59:42.585Z,22.07
2017-05-26T07:00:52.540Z,22.06
2017-05-26T07:02:02.215Z,22.02
2017-05-26T07:03:12.178Z,22.02
2017-05-26T07:04:22.135Z,22
2017-05-26T07:05:32.085Z,22.05
2017-05-26T07:06:42.040Z,22.03
2017-05-26T07:07:51.997Z,21.91
2017-05-26T07:09:01.949Z,22.07
2017-05-26T07:10:12.221Z,22.06
2017-05-26T07:11:21.856Z,22.02
2017-05-26T07:12:31.181Z,22.02
2017-05-26T07:13:40.826Z,22.03
2017-05-26T07:14:50.786Z,22.06
2017-05-26T07:16:01.055Z,22.02
2017-05-26T07:17:11.321Z,22.02
2017-05-26T07:18:21.277Z,21.96
2017-05-26T07:19:31.234Z,22.06
2017-05-26T07:20:40.884Z,21.9
2017-05-26T07:21:51.152Z,21.96
2017-05-26T07:23:01.102Z,21.99
2017-05-26T07:24:09.793Z,22
2017-05-26T07:25:19.935Z,21.94
2017-05-26T07:26:29.887Z,22.07
2017-05-26T07:27:40.152Z,21.92
2017-05-26T07:28:50.428Z,22.05
2017-05-26T07:30:00.069Z,22
2017-05-26T07:31:09.701Z,22.1
2017-05-26T07:32:19.969Z,22.07
2017-05-26T07:33:30.246Z,22
2017-05-26T07:34:40.199Z,22.02
2017-05-26T07:35:50.164Z,22.06
2017-05-26T07:37:00.123Z,22
2017-05-26T07:38:09.766Z,22.06
2017-05-26T07:39:20.100Z,22.02
2017-05-26T07:40:30.374Z,22.03
2017-05-26T07:41:40.326Z,22.05
2017-05-26T07:42:50.297Z,21.99
2017-05-26T07:44:00.257Z,22.03
2017-05-26T07:45:09.590Z,22.09
2017-05-26T07:46:19.225Z,21.98
2017-05-26T07:47:28.870Z,22
2017-05-26T07:48:38.505Z,22.09
2017-05-26T07:49:48.465Z,22.06
2017-05-26T07:50:58.734Z,22
2017-05-26T07:52:08.374Z,22.03
2017-05-26T07:53:18.015Z,22.05
2017-05-26T07:54:28.278Z,22.03
2017-05-26T07:55:37.923Z,22
2017-05-26T07:56:47.557Z,22.07
2017-05-26T07:57:57.838Z,22
2017-05-26T07:59:08.110Z,22.03
2017-05-26T08:00:18.380Z,22.02
2017-05-26T08:01:28.022Z,22.07
2017-05-26T08:02:37.664Z,22.03
2017-05-26T08:03:47.304Z,22.06
2017-05-26T08:04:57.573Z,22.06
2017-05-26T08:06:07.526Z,21.99
2017-05-26T08:07:17.789Z,22.03
2017-05-26T08:08:28.065Z,22.02
2017-05-26T08:09:38.024Z,22.05
2017-05-26T08:10:47.978Z,22.02
2017-05-26T08:11:58.253Z,22.03
2017-05-26T08:13:08.522Z,21.99
2017-05-26T08:14:18.476Z,21.94
2017-05-26T08:15:28.746Z,22.06
2017-05-26T08:16:38.384Z,22.05
2017-05-26T08:17:48.341Z,22.03
2017-05-26T08:18:58.023Z,22.05
2017-05-26T08:20:07.662Z,22.07
2017-05-26T08:21:17.019Z,22
2017-05-26T08:22:26.974Z,22
2017-05-26T08:23:37.246Z,22
2017-05-26T08:24:47.522Z,22.07
2017-05-26T08:25:57.475Z,22.02
2017-05-26T08:27:07.109Z,22.07
2017-05-26T08:28:16.747Z,22.05
2017-05-26T08:29:26.387Z,21.99
2017-05-26T08:30:36.666Z,22.03
2017-05-26T08:31:46.613Z,22.07
2017-05-26T08:32:56.565Z,22.02
2017-05-26T08:34:06.212Z,22.09
2017-05-26T08:35:16.498Z,22.03
2017-05-26T08:36:26.767Z,22.1
2017-05-26T08:37:36.406Z,22.09
2017-05-26T08:38:46.678Z,22.02
2017-05-26T08:39:56.632Z,22.15
2017-05-26T08:41:06.587Z,22.02
2017-05-26T08:42:16.228Z,22.03
2017-05-26T08:43:25.867Z,22.09
2017-05-26T08:44:35.819Z,22
2017-05-26T08:45:45.777Z,22.06
2017-05-26T08:46:56.043Z,22.06
2017-05-26T08:48:05.991Z,22.06
2017-05-26T08:49:15.638Z,22
2017-05-26T08:50:25.901Z,22.03
2017-05-26T08:51:35.540Z,22.09
2017-05-26T08:52:45.500Z,22
2017-05-26T08:53:55.845Z,21.99
2017-05-26T08:55:05.800Z,22.03
2017-05-26T08:56:15.485Z,22.03
2017-05-26T08:57:25.753Z,22.06
2017-05-26T08:58:35.708Z,22.07
2017-05-26T08:59:45.672Z,22.02
2017-05-26T09:00:55.935Z,22.02
2017-05-26T09:02:06.211Z,22.12
2017-05-26T09:03:16.485Z,22.03
2017-05-26T09:04:26.129Z,22.06
2017-05-26T09:05:36.081Z,21.99
2017-05-26T09:06:46.350Z,22
2017-05-26T09:07:56.616Z,22.09
2017-05-26T09:09:06.910Z,22.1
2017-05-26T09:10:16.864Z,22.05
2017-05-26T09:11:26.823Z,22.07
2017-05-26T09:12:36.142Z,22.02
2017-05-26T09:13:46.098Z,22.06
2017-05-26T09:14:56.054Z,22.07
2017-05-26T09:16:06.002Z,22.03
2017-05-26T09:17:16.270Z,22
2017-05-26T09:18:26.231Z,22.09
2017-05-26T09:19:36.194Z,22.15
2017-05-26T09:20:46.533Z,22.07
2017-05-26T09:21:56.170Z,22.1
2017-05-26T09:23:06.436Z,22.1
2017-05-26T09:24:16.082Z,22.06
2017-05-26T09:25:26.353Z,22
2017-05-26T09:26:35.683Z,22.05
2017-05-26T09:27:45.955Z,22.07
2017-05-26T09:28:55.910Z,22.12
2017-05-26T09:30:05.232Z,22.03
2017-05-26T09:31:15.494Z,22.07
2017-05-26T09:32:25.130Z,22.07
2017-05-26T09:33:35.402Z,22.12
2017-05-26T09:34:45.672Z,22.09
2017-05-26T09:35:55.629Z,22.12
2017-05-26T09:37:05.576Z,22.03
2017-05-26T09:38:15.526Z,22.12
2017-05-26T09:39:25.483Z,22.07
2017-05-26T09:40:35.120Z,22.07
2017-05-26T09:41:45.069Z,22.06
2017-05-26T09:42:55.027Z,22.12
2017-05-26T09:44:05.299Z,22.12
2017-05-26T09:45:15.571Z,22.09
2017-05-26T09:46:25.523Z,22.07
2017-05-26T09:47:35.480Z,22.09
2017-05-26T09:48:45.762Z,22.14
2017-05-26T09:49:55.717Z,22.09
2017-05-26T09:51:05.988Z,22.15
2017-05-26T09:52:15.312Z,22.1
2017-05-26T09:53:25.267Z,22.1
2017-05-26T09:54:35.217Z,22.09
2017-05-26T09:55:45.482Z,22.1
2017-05-26T09:56:55.128Z,22.1
2017-05-26T09:58:05.083Z,22.15
2017-05-26T09:59:15.360Z,22.05
2017-05-26T10:00:25.643Z,22.03
2017-05-26T10:01:35.602Z,22.14
2017-05-26T10:02:45.928Z,22.15
2017-05-26T10:03:55.886Z,22.15
2017-05-26T10:05:05.526Z,22.14
2017-05-26T10:06:14.849Z,22.09
2017-05-26T10:07:24.805Z,22.1
2017-05-26T10:08:35.072Z,22.17
2017-05-26T10:09:45.028Z,22.14
2017-05-26T10:10:54.981Z,22.14
2017-05-26T10:12:05.272Z,22.15
2017-05-26T10:13:15.220Z,22.15
2017-05-26T10:14:24.865Z,22.14
2017-05-26T10:15:34.817Z,22.1
2017-05-26T10:16:45.082Z,22.15
2017-05-26T10:17:55.354Z,22.1
2017-05-26T10:19:05.308Z,22.14
2017-05-26T10:20:15.580Z,22.15
2017-05-26T10:21:25.532Z,22.15
2017-05-26T10:22:35.486Z,22.15
2017-05-26T10:23:45.433Z,22.14
2017-05-26T10:24:55.409Z,22.14
2017-05-26T10:26:05.677Z,22.1
2017-05-26T10:27:15.633Z,22.17
2017-05-26T10:28:25.900Z,22.14
2017-05-26T10:29:36.167Z,22.09
2017-05-26T10:30:46.122Z,22.14
2017-05-26T10:31:56.399Z,22.14
2017-05-26T10:33:06.031Z,22.14
2017-05-26T10:34:15.668Z,22.14
2017-05-26T10:35:25.622Z,22.1
2017-05-26T10:36:35.895Z,22.18
2017-05-26T10:37:46.167Z,22.14
2017-05-26T10:38:56.118Z,22.15
2017-05-26T10:40:06.075Z,22.17
2017-05-26T10:41:15.391Z,22.17
2017-05-26T10:42:25.345Z,22.1
2017-05-26T10:43:35.608Z,22.15
2017-05-26T10:44:45.560Z,22.12
2017-05-26T10:45:55.513Z,22.14
2017-05-26T10:47:05.470Z,22.15
2017-05-26T10:48:15.734Z,22.14
2017-05-26T10:49:26.015Z,22.17
2017-05-26T10:50:35.653Z,22.15
2017-05-26T10:51:45.298Z,22.14
2017-05-26T10:52:55.257Z,22.18
2017-05-26T10:54:05.217Z,22.17
2017-05-26T10:55:14.554Z,22.17
2017-05-26T10:56:24.509Z,22.21
2017-05-26T10:57:34.458Z,22.14
2017-05-26T10:58:44.408Z,22.17
2017-05-26T10:59:54.063Z,22.12
2017-05-26T11:01:04.021Z,22.17
2017-05-26T11:02:14.285Z,22.17
2017-05-26T11:03:24.557Z,22.09
2017-05-26T11:04:34.197Z,22.17
2017-05-26T11:05:43.842Z,22.14
2017-05-26T11:06:52.853Z,22.17
2017-05-26T11:08:02.816Z,22.17
2017-05-26T11:09:12.770Z,22.17
2017-05-26T11:10:21.468Z,22.22
2017-05-26T11:11:31.417Z,22.17
2017-05-26T11:12:41.691Z,22.14
2017-05-26T11:13:51.958Z,22.14
2017-05-26T11:15:01.604Z,22.17
2017-05-26T11:16:11.869Z,22.12
2017-05-26T11:17:21.826Z,22.21
2017-05-26T11:18:31.785Z,22.14
2017-05-26T11:19:41.743Z,22.18
2017-05-26T11:20:51.695Z,22.24
2017-05-26T11:22:01.655Z,22.22
2017-05-26T11:23:11.605Z,22.22
2017-05-26T11:24:21.573Z,22.17
2017-05-26T11:25:31.837Z,22.2
2017-05-26T11:26:42.104Z,22.2
2017-05-26T11:27:52.372Z,22.17
2017-05-26T11:29:02.333Z,22.25
2017-05-26T11:30:11.975Z,22.22
2017-05-26T11:31:21.299Z,22.22
2017-05-26T11:32:31.565Z,22.21
2017-05-26T11:33:41.519Z,22.22
2017-05-26T11:34:51.796Z,22.22
2017-05-26T11:36:02.059Z,22.21
2017-05-26T11:37:12.024Z,22.24
2017-05-26T11:38:21.664Z,22.22
2017-05-26T11:39:31.311Z,22.22
2017-05-26T11:40:41.577Z,22.25
2017-05-26T11:41:51.837Z,22.18
2017-05-26T11:43:01.478Z,22.21
2017-05-26T11:44:11.429Z,22.2
2017-05-26T11:45:21.704Z,22.21
2017-05-26T11:46:31.968Z,22.27
2017-05-26T11:47:41.599Z,22.24
2017-05-26T11:48:51.874Z,22.27
2017-05-26T11:50:02.142Z,22.25
2017-05-26T11:51:12.100Z,22.3
2017-05-26T11:52:22.049Z,22.35
2017-05-26T11:53:31.999Z,22.28
2017-05-26T11:54:41.643Z,22.24
2017-05-26T11:55:51.282Z,22.21
2017-05-26T11:57:01.549Z,22.22
2017-05-26T11:58:11.830Z,22.22
2017-05-26T11:59:21.787Z,22.18
2017-05-26T12:00:31.758Z,22.22
2017-05-26T12:01:41.392Z,22.22
2017-05-26T12:02:51.033Z,22.22
2017-05-26T12:04:00.991Z,22.25
2017-05-26T12:05:10.623Z,22.21
2017-05-26T12:06:20.579Z,22.24
2017-05-26T12:07:30.545Z,22.25
2017-05-26T12:08:40.814Z,22.31
2017-05-26T12:09:50.453Z,22.27
2017-05-26T12:11:00.095Z,22.24
2017-05-26T12:12:09.735Z,22.24
2017-05-26T12:13:19.688Z,22.25
2017-05-26T12:14:29.974Z,22.27
2017-05-26T12:15:39.925Z,22.24
2017-05-26T12:16:49.886Z,22.25
2017-05-26T12:18:00.173Z,22.27
2017-05-26T12:19:10.448Z,22.24
2017-05-26T12:20:20.404Z,22.25
2017-05-26T12:21:30.669Z,22.25
2017-05-26T12:22:40.672Z,22.28
2017-05-26T12:23:50.938Z,22.24
2017-05-26T12:25:01.204Z,22.25
2017-05-26T12:26:11.181Z,22.3
2017-05-26T12:27:20.857Z,22.3
2017-05-26T12:28:31.126Z,22.28
2017-05-26T12:29:41.398Z,22.21
2017-05-26T12:30:51.734Z,22.27
2017-05-26T12:32:01.695Z,22.27
2017-05-26T12:33:11.334Z,22.27
2017-05-26T12:34:20.974Z,22.3
2017-05-26T12:35:31.246Z,22.3
2017-05-26T12:36:41.200Z,22.28
2017-05-26T12:37:50.564Z,22.25
2017-05-26T12:39:00.205Z,22.28
2017-05-26T12:40:10.520Z,22.28
2017-05-26T12:41:19.844Z,22.3
2017-05-26T12:42:30.111Z,22.22
2017-05-26T12:43:40.380Z,22.28
2017-05-26T12:44:50.022Z,22.28
2017-05-26T12:46:00.000Z,22.31
2017-05-26T12:47:09.639Z,22.28
2017-05-26T12:48:19.586Z,22.28
2017-05-26T12:49:28.912Z,22.33
2017-05-26T12:50:38.869Z,22.3
2017-05-26T12:51:49.133Z,22.3
2017-05-26T12:52:59.089Z,22.36
2017-05-26T12:54:09.043Z,22.31
2017-05-26T12:55:19.308Z,22.36
2017-05-26T12:56:29.257Z,22.3
2017-05-26T12:57:39.563Z,22.35
2017-05-26T12:58:49.836Z,22.37
2017-05-26T12:59:59.793Z,22.37
2017-05-26T13:01:09.122Z,22.28
2017-05-26T13:02:19.075Z,22.33
2017-05-26T13:03:28.724Z,22.27
2017-05-26T13:04:38.677Z,22.37
2017-05-26T13:05:48.943Z,22.33
2017-05-26T13:06:58.578Z,22.39
2017-05-26T13:08:07.897Z,22.35
2017-05-26T13:09:17.531Z,22.35
2017-05-26T13:10:26.851Z,22.31
2017-05-26T13:11:36.797Z,22.39
2017-05-26T13:12:46.432Z,22.35
2017-05-26T13:13:56.700Z,22.24
2017-05-26T13:15:06.346Z,22.43
2017-05-26T13:16:16.616Z,22.42
2017-05-26T13:17:25.942Z,22.37
2017-05-26T13:18:35.904Z,22.36
2017-05-26T13:19:46.173Z,22.43
2017-05-26T13:20:55.811Z,22.47
2017-05-26T13:22:05.774Z,22.33
2017-05-26T13:23:16.047Z,22.42
2017-05-26T13:24:25.686Z,22.42
2017-05-26T13:25:36.028Z,22.31
2017-05-26T13:26:46.293Z,22.35
2017-05-26T13:27:55.613Z,22.36
2017-05-26T13:29:05.562Z,22.31
2017-05-26T13:30:15.519Z,22.43
2017-05-26T13:31:25.162Z,22.47
2017-05-26T13:32:35.173Z,22.36
2017-05-26T13:33:45.124Z,22.42
2017-05-26T13:34:54.762Z,22.43
2017-05-26T13:36:04.084Z,22.43
2017-05-26T13:37:14.037Z,22.46
2017-05-26T13:38:23.990Z,22.39
2017-05-26T13:39:34.255Z,22.52
2017-05-26T13:40:44.523Z,22.45
2017-05-26T13:41:54.801Z,22.54
2017-05-26T13:43:04.750Z,22.52
2017-05-26T13:44:15.024Z,22.47
2017-05-26T13:45:24.998Z,22.33
2017-05-26T13:46:34.954Z,22.43
2017-05-26T13:47:45.218Z,22.46
2017-05-26T13:48:54.856Z,22.46
2017-05-26T13:50:04.555Z,22.49
2017-05-26T13:51:14.565Z,22.47
2017-05-26T13:52:24.209Z,22.52
2017-05-26T13:53:33.539Z,22.51
2017-05-26T13:54:43.799Z,22.54
2017-05-26T13:55:54.064Z,22.45
2017-05-26T13:57:03.703Z,22.43
2017-05-26T13:58:13.653Z,22.52
2017-05-26T13:59:22.973Z,22.51
2017-05-26T14:00:33.233Z,22.43
2017-05-26T14:01:43.185Z,22.47
2017-05-26T14:02:53.449Z,22.47
2017-05-26T14:04:03.403Z,22.46
2017-05-26T14:05:13.352Z,22.51
2017-05-26T14:06:23.306Z,22.54
2017-05-26T14:07:33.353Z,22.46
2017-05-26T14:08:43.300Z,22.52
2017-05-26T14:09:53.587Z,22.49
2017-05-26T14:11:03.541Z,22.54
2017-05-26T14:12:13.184Z,22.51
2017-05-26T14:13:23.135Z,22.51
2017-05-26T14:14:33.403Z,22.61
2017-05-26T14:15:43.691Z,22.6
2017-05-26T14:16:53.646Z,22.61
2017-05-26T14:18:03.288Z,22.57
2017-05-26T14:19:12.921Z,22.61
2017-05-26T14:20:22.870Z,22.62
2017-05-26T14:21:32.510Z,22.51
2017-05-26T14:22:42.777Z,22.64
2017-05-26T14:23:52.731Z,22.51
2017-05-26T14:25:02.373Z,22.49
2017-05-26T14:26:12.646Z,22.62
2017-05-26T14:27:22.916Z,22.51
2017-05-26T14:28:32.240Z,22.61
2017-05-26T14:29:42.511Z,22.7
2017-05-26T14:30:52.778Z,22.68
2017-05-26T14:32:02.416Z,22.61
2017-05-26T14:33:12.051Z,22.62
2017-05-26T14:34:22.006Z,22.68
2017-05-26T14:35:32.313Z,22.6
2017-05-26T14:36:42.578Z,22.55
2017-05-26T14:37:52.533Z,22.55
2017-05-26T14:39:02.175Z,22.61
2017-05-26T14:40:12.445Z,22.55
2017-05-26T14:41:22.078Z,22.61
2017-05-26T14:42:32.344Z,22.58
2017-05-26T14:43:42.299Z,22.62
2017-05-26T14:44:52.252Z,22.47
2017-05-26T14:46:02.215Z,22.57
2017-05-26T14:47:12.480Z,22.49
2017-05-26T14:48:22.743Z,22.57
2017-05-26T14:49:33.007Z,22.65
2017-05-26T14:50:43.296Z,22.61
2017-05-26T14:51:53.565Z,22.55
2017-05-26T14:53:03.558Z,22.54
2017-05-26T14:54:13.518Z,22.51
2017-05-26T14:55:23.157Z,22.49
2017-05-26T14:56:33.422Z,22.55
2017-05-26T14:57:43.366Z,22.55
2017-05-26T14:58:53.393Z,22.51
2017-05-26T15:00:03.352Z,22.61
2017-05-26T15:01:13.621Z,22.61
2017-05-26T15:02:23.884Z,22.6
2017-05-26T15:03:33.209Z,22.61
2017-05-26T15:04:43.159Z,22.62
2017-05-26T15:05:52.795Z,22.58
2017-05-26T15:07:03.062Z,22.58